createdAt,value
2019-02-22T00:02:25.857Z,88.67
2019-02-22T00:04:59.161Z,87.77
2019-02-22T00:07:32.470Z,88.00
2019-02-22T00:10:06.689Z,88.03
2019-02-22T00:12:39.997Z,87.98
2019-02-22T00:15:13.270Z,88.16
2019-02-22T00:17:46.582Z,88.32
2019-02-22T00:20:19.865Z,89.01
2019-02-22T00:22:53.182Z,88.86
2019-02-22T00:25:26.473Z,88.79
2019-02-22T00:28:00.282Z,88.07
2019-02-22T00:30:33.620Z,87.60
2019-02-22T00:33:06.955Z,87.52
2019-02-22T00:35:40.285Z,88.40
2019-02-22T00:38:13.526Z,88.66
2019-02-22T00:40:46.803Z,89.03
2019-02-22T00:43:20.117Z,89.38
2019-02-22T00:45:53.383Z,89.47
2019-02-22T00:48:26.681Z,89.37
2019-02-22T00:51:00.007Z,89.33
2019-02-22T00:53:33.279Z,89.10
2019-02-22T00:56:06.565Z,88.96
2019-02-22T00:58:39.855Z,89.02
2019-02-22T01:01:13.132Z,89.44
2019-02-22T01:03:46.437Z,88.96
2019-02-22T01:06:19.727Z,88.91
2019-02-22T01:08:52.997Z,89.30
2019-02-22T01:11:26.284Z,88.06
2019-02-22T01:13:59.595Z,88.46
2019-02-22T01:16:32.862Z,89.36
2019-02-22T01:19:06.150Z,89.13
2019-02-22T01:21:39.425Z,88.82
2019-02-22T01:24:12.722Z,88.61
2019-02-22T01:26:46.002Z,88.37
2019-02-22T01:29:19.316Z,88.06
2019-02-22T01:31:52.582Z,87.98
2019-02-22T01:34:25.907Z,87.81
2019-02-22T01:36:59.170Z,87.58
2019-02-22T01:39:32.466Z,87.90
2019-02-22T01:42:05.749Z,87.81
2019-02-22T01:44:39.029Z,88.11
2019-02-22T01:47:12.316Z,88.17
2019-02-22T01:49:45.612Z,88.88
2019-02-22T01:52:18.909Z,89.30
2019-02-22T01:54:52.223Z,88.95
2019-02-22T01:57:25.503Z,89.09
2019-02-22T01:59:58.804Z,89.59
2019-02-22T02:02:32.072Z,90.10
2019-02-22T02:05:05.437Z,90.00
2019-02-22T02:07:38.729Z,89.92
2019-02-22T02:10:12.080Z,89.16
2019-02-22T02:12:45.363Z,89.14
2019-02-22T02:15:18.732Z,88.96
2019-02-22T02:17:52.015Z,89.58
2019-02-22T02:20:25.333Z,89.41
2019-02-22T02:22:58.606Z,88.94
2019-02-22T02:25:31.898Z,88.91
2019-02-22T02:28:07.863Z,88.14
2019-02-22T02:30:41.230Z,87.94
2019-02-22T02:33:14.437Z,88.20
2019-02-22T02:35:47.721Z,88.10
2019-02-22T02:38:20.981Z,88.11
2019-02-22T02:41:06.834Z,88.31
2019-02-22T02:43:29.298Z,88.42
2019-02-22T02:46:02.606Z,88.20
2019-02-22T02:48:35.883Z,88.36
2019-02-22T02:51:09.169Z,88.74
2019-02-22T02:53:42.454Z,88.85
2019-02-22T02:56:17.444Z,89.20
2019-02-22T02:58:50.736Z,88.44
2019-02-22T03:01:24.027Z,88.60
2019-02-22T03:03:57.321Z,88.75
2019-02-22T03:06:34.700Z,88.34
2019-02-22T03:09:09.619Z,88.36
2019-02-22T03:11:42.921Z,88.08
2019-02-22T03:14:16.202Z,88.05
2019-02-22T03:16:49.515Z,88.02
2019-02-22T03:19:22.801Z,87.89
2019-02-22T03:21:56.109Z,87.67
2019-02-22T03:24:29.378Z,87.66
2019-02-22T03:27:02.749Z,87.50
2019-02-22T03:29:36.025Z,87.98
2019-02-22T03:32:09.318Z,88.27
2019-02-22T03:34:42.602Z,88.09
2019-02-22T03:37:15.908Z,87.60
2019-02-22T03:39:49.199Z,88.02
2019-02-22T03:42:22.512Z,87.94
2019-02-22T03:44:55.855Z,88.09
2019-02-22T03:47:29.142Z,88.78
2019-02-22T03:50:02.435Z,87.69
2019-02-22T03:52:47.620Z,87.91
2019-02-22T03:55:20.889Z,87.75
2019-02-22T03:57:54.186Z,87.48
2019-02-22T04:00:27.494Z,86.94
2019-02-22T04:03:00.849Z,86.72
2019-02-22T04:05:34.134Z,86.45
2019-02-22T04:08:08.506Z,86.30
2019-02-22T04:10:41.795Z,86.50
2019-02-22T04:13:15.095Z,86.81
2019-02-22T04:15:48.387Z,86.77
2019-02-22T04:18:21.687Z,86.32
2019-02-22T04:20:54.945Z,87.04
2019-02-22T04:23:28.265Z,86.63
2019-02-22T04:26:01.538Z,85.99
2019-02-22T04:28:34.847Z,85.91
2019-02-22T04:31:08.147Z,86.43
2019-02-22T04:33:41.467Z,86.04
2019-02-22T04:36:14.736Z,86.54
2019-02-22T04:38:48.044Z,86.59
2019-02-22T04:41:21.334Z,86.80
2019-02-22T04:43:54.620Z,86.87
2019-02-22T04:46:27.920Z,86.99
2019-02-22T04:49:01.193Z,86.95
2019-02-22T04:51:34.517Z,86.78
2019-02-22T04:54:07.804Z,87.04
2019-02-22T04:56:41.096Z,87.22
2019-02-22T04:59:14.378Z,87.41
2019-02-22T05:01:47.684Z,87.53
2019-02-22T05:04:20.965Z,87.44
2019-02-22T05:06:54.264Z,87.39
2019-02-22T05:09:27.552Z,87.39
2019-02-22T05:12:10.505Z,87.31
2019-02-22T05:14:35.878Z,87.52
2019-02-22T05:17:09.178Z,87.64
2019-02-22T05:19:42.951Z,86.75
2019-02-22T05:22:16.229Z,85.87
2019-02-22T05:24:49.508Z,85.80
2019-02-22T05:27:24.000Z,85.66
2019-02-22T05:29:57.267Z,86.41
2019-02-22T05:32:30.575Z,86.50
2019-02-22T05:35:03.990Z,85.85
2019-02-22T05:37:37.281Z,86.02
2019-02-22T05:40:10.638Z,86.20
2019-02-22T05:42:43.943Z,86.63
2019-02-22T05:45:17.249Z,86.68
2019-02-22T05:47:50.552Z,87.03
2019-02-22T05:50:23.850Z,87.37
2019-02-22T05:52:57.529Z,87.20
2019-02-22T05:55:30.823Z,86.66
2019-02-22T05:58:04.127Z,87.12
2019-02-22T06:00:37.398Z,86.41
2019-02-22T06:03:10.694Z,86.43
2019-02-22T06:05:44.001Z,86.01
2019-02-22T06:08:17.779Z,86.16
2019-02-22T06:10:51.067Z,85.85
2019-02-22T06:13:24.357Z,85.70
2019-02-22T06:15:57.696Z,86.11
2019-02-22T06:18:30.997Z,85.84
2019-02-22T06:21:04.266Z,85.29
2019-02-22T06:23:37.557Z,85.35
2019-02-22T06:26:10.852Z,85.49
2019-02-22T06:28:44.129Z,85.04
2019-02-22T06:31:17.416Z,84.49
2019-02-22T06:33:50.717Z,84.11
2019-02-22T06:36:24.004Z,83.98
2019-02-22T06:38:57.300Z,83.79
2019-02-22T06:41:30.575Z,83.71
2019-02-22T06:44:04.173Z,83.87
2019-02-22T06:46:37.451Z,84.13
2019-02-22T06:49:10.746Z,84.44
2019-02-22T06:51:44.037Z,84.99
2019-02-22T06:54:17.336Z,85.00
2019-02-22T06:56:50.637Z,85.00
2019-02-22T06:59:23.951Z,85.53
2019-02-22T07:01:57.794Z,85.97
2019-02-22T07:04:31.118Z,85.66
2019-02-22T07:07:04.474Z,86.17
2019-02-22T07:09:37.797Z,85.66
2019-02-22T07:12:12.740Z,85.59
2019-02-22T07:14:46.041Z,85.24
2019-02-22T07:17:19.337Z,84.66
2019-02-22T07:19:52.626Z,84.36
2019-02-22T07:22:25.926Z,84.69
2019-02-22T07:24:59.264Z,84.79
2019-02-22T07:27:32.554Z,85.12
2019-02-22T07:30:08.882Z,84.98
2019-02-22T07:32:42.353Z,83.68
2019-02-22T07:35:15.794Z,84.18
2019-02-22T07:37:49.071Z,84.34
2019-02-22T07:40:22.386Z,83.60
2019-02-22T07:42:55.674Z,83.32
2019-02-22T07:45:29.001Z,82.96
2019-02-22T07:48:02.291Z,83.60
2019-02-22T07:50:36.646Z,83.22
2019-02-22T07:53:09.926Z,81.94
2019-02-22T07:55:43.304Z,82.04
2019-02-22T07:58:16.578Z,82.14
2019-02-22T08:00:49.917Z,82.06
2019-02-22T08:03:23.279Z,80.84
2019-02-22T08:05:56.623Z,80.37
2019-02-22T08:08:29.884Z,79.81
2019-02-22T08:11:03.312Z,79.50
2019-02-22T08:13:36.619Z,78.93
2019-02-22T08:16:09.925Z,78.63
2019-02-22T08:18:43.503Z,78.61
2019-02-22T08:21:16.812Z,78.56
2019-02-22T08:23:50.164Z,77.83
2019-02-22T08:26:23.935Z,77.85
2019-02-22T08:28:57.242Z,77.53
2019-02-22T08:31:30.579Z,76.82
2019-02-22T08:34:03.941Z,76.98
2019-02-22T08:36:38.147Z,75.41
2019-02-22T08:39:12.535Z,74.67
2019-02-22T08:41:45.873Z,74.70
2019-02-22T08:44:19.195Z,74.42
2019-02-22T08:46:52.562Z,74.32
2019-02-22T08:49:25.871Z,73.82
2019-02-22T08:52:00.704Z,74.00
2019-02-22T08:54:34.031Z,73.62
2019-02-22T08:57:07.334Z,73.22
2019-02-22T08:59:40.668Z,73.99
2019-02-22T09:02:13.946Z,73.89
2019-02-22T09:04:47.258Z,73.45
2019-02-22T09:07:20.546Z,73.82
2019-02-22T09:09:53.865Z,72.83
2019-02-22T09:12:27.129Z,73.29
2019-02-22T09:15:00.493Z,72.90
2019-02-22T09:17:33.788Z,72.03
2019-02-22T09:20:09.723Z,72.09
2019-02-22T09:22:43.014Z,70.39
2019-02-22T09:25:16.332Z,70.96
2019-02-22T09:27:49.659Z,71.58
2019-02-22T09:30:22.937Z,72.09
2019-02-22T09:32:56.217Z,71.13
2019-02-22T09:35:29.533Z,71.22
2019-02-22T09:38:04.315Z,71.10
2019-02-22T09:40:37.614Z,69.20
2019-02-22T09:43:11.185Z,68.41
2019-02-22T09:45:44.486Z,68.29
2019-02-22T09:48:17.787Z,68.81
2019-02-22T09:50:51.113Z,70.05
2019-02-22T09:53:24.404Z,70.16
2019-02-22T09:55:57.690Z,69.36
2019-02-22T09:58:31.002Z,68.88
2019-02-22T10:01:04.389Z,67.36
2019-02-22T10:03:37.663Z,65.29
2019-02-22T10:06:10.965Z,64.58
2019-02-22T10:08:44.296Z,65.68
2019-02-22T10:11:18.782Z,64.22
2019-02-22T10:13:52.072Z,64.71
2019-02-22T10:16:27.501Z,65.64
2019-02-22T10:19:00.390Z,65.80
2019-02-22T10:21:33.792Z,65.80
2019-02-22T10:24:07.081Z,64.66
2019-02-22T10:26:40.660Z,64.66
2019-02-22T10:29:13.937Z,64.66
2019-02-22T10:31:47.272Z,63.17
2019-02-22T10:34:20.548Z,61.59
2019-02-22T10:36:53.851Z,63.21
2019-02-22T10:39:27.141Z,62.78
2019-02-22T10:42:00.542Z,64.23
2019-02-22T10:44:33.866Z,62.22
2019-02-22T10:47:07.182Z,63.70
2019-02-22T10:49:40.481Z,62.61
2019-02-22T10:52:13.791Z,62.72
2019-02-22T10:54:47.116Z,61.71
2019-02-22T10:57:20.379Z,61.30
2019-02-22T10:59:53.657Z,62.87
2019-02-22T11:02:26.961Z,62.87
2019-02-22T11:05:00.313Z,62.52
2019-02-22T11:07:33.702Z,60.46
2019-02-22T11:10:09.922Z,55.51
2019-02-22T11:12:43.292Z,55.51
2019-02-22T11:15:16.626Z,47.62
2019-02-22T11:17:49.927Z,40.20
2019-02-22T11:20:23.219Z,47.42
2019-02-22T11:22:56.568Z,47.42
2019-02-22T11:25:29.900Z,47.16
2019-02-22T11:28:03.187Z,47.63
2019-02-22T11:30:36.603Z,49.18
2019-02-22T11:33:10.986Z,48.86
2019-02-22T11:35:44.277Z,50.09
2019-02-22T11:38:17.547Z,50.65
2019-02-22T11:40:50.867Z,51.57
2019-02-22T11:43:24.161Z,52.32
2019-02-22T11:45:57.454Z,52.20
2019-02-22T11:48:30.741Z,52.26
2019-02-22T11:51:04.040Z,52.32
2019-02-22T11:53:37.387Z,51.71
2019-02-22T11:56:11.641Z,52.19
2019-02-22T11:58:44.899Z,51.42
2019-02-22T12:01:18.201Z,50.35
2019-02-22T12:03:51.476Z,50.38
2019-02-22T12:06:24.804Z,49.10
2019-02-22T12:08:58.080Z,49.97
2019-02-22T12:11:31.386Z,50.31
2019-02-22T12:14:04.740Z,49.76
2019-02-22T12:16:38.077Z,49.76
2019-02-22T12:19:11.371Z,49.59
2019-02-22T12:21:44.686Z,49.83
2019-02-22T12:24:17.961Z,48.77
2019-02-22T12:26:51.248Z,49.16
2019-02-22T12:29:24.516Z,50.67
2019-02-22T12:31:57.816Z,50.57
2019-02-22T12:34:32.728Z,50.34
2019-02-22T12:37:06.169Z,50.78
2019-02-22T12:39:39.516Z,49.55
2019-02-22T12:42:12.809Z,48.60
2019-02-22T12:44:46.084Z,45.73
2019-02-22T12:47:19.481Z,46.57
2019-02-22T12:49:52.857Z,48.32
2019-02-22T12:52:26.154Z,50.61
2019-02-22T12:54:59.429Z,49.65
2019-02-22T12:57:32.747Z,49.98
2019-02-22T13:00:12.436Z,50.10
2019-02-22T13:02:45.749Z,50.44
2019-02-22T13:05:21.838Z,50.44
2019-02-22T13:07:55.160Z,50.61
2019-02-22T13:10:28.460Z,52.17
2019-02-22T13:13:01.785Z,51.60
2019-02-22T13:15:35.075Z,51.16
2019-02-22T13:18:08.442Z,51.64
2019-02-22T13:20:41.698Z,51.51
2019-02-22T13:23:14.988Z,51.72
2019-02-22T13:25:49.307Z,51.64
2019-02-22T13:28:22.616Z,51.64
2019-02-22T13:30:55.896Z,52.13
2019-02-22T13:33:29.197Z,51.78
2019-02-22T13:36:02.504Z,52.07
2019-02-22T13:38:35.809Z,51.67
2019-02-22T13:41:09.114Z,52.48
2019-02-22T13:43:42.415Z,51.55
2019-02-22T13:46:15.712Z,52.47
2019-02-22T13:48:49.121Z,51.89
2019-02-22T13:51:22.478Z,51.89
2019-02-22T13:53:55.774Z,52.33
2019-02-22T13:56:30.078Z,52.15
2019-02-22T13:59:03.596Z,52.57
2019-02-22T14:01:36.955Z,52.57
2019-02-22T14:04:10.235Z,53.29
2019-02-22T14:06:43.528Z,53.72
2019-02-22T14:09:16.810Z,53.26
2019-02-22T14:11:50.137Z,53.73
2019-02-22T14:14:23.446Z,54.14
2019-02-22T14:16:56.827Z,52.98
2019-02-22T14:19:30.147Z,53.79
2019-02-22T14:22:04.132Z,53.37
2019-02-22T14:24:37.424Z,53.55
2019-02-22T14:27:10.797Z,54.05
2019-02-22T14:29:44.119Z,54.22
2019-02-22T14:32:17.453Z,54.03
2019-02-22T14:34:50.720Z,54.24
2019-02-22T14:37:24.028Z,55.04
2019-02-22T14:40:03.025Z,53.33
2019-02-22T14:42:32.451Z,53.44
2019-02-22T14:45:08.502Z,53.92
2019-02-22T14:47:41.797Z,54.00
2019-02-22T14:50:18.578Z,54.22
2019-02-22T14:52:51.882Z,54.17
2019-02-22T14:55:25.226Z,54.82
2019-02-22T14:57:58.517Z,54.47
2019-02-22T15:00:32.641Z,54.30
2019-02-22T15:03:05.934Z,53.97
2019-02-22T15:05:39.235Z,53.88
2019-02-22T15:08:12.547Z,53.45
2019-02-22T15:10:45.843Z,53.36
2019-02-22T15:13:19.201Z,54.57
2019-02-22T15:16:03.964Z,54.57
2019-02-22T15:18:37.608Z,53.35
2019-02-22T15:21:10.941Z,53.19
2019-02-22T15:23:44.228Z,53.28
2019-02-22T15:26:17.537Z,53.39
2019-02-22T15:28:50.920Z,54.10
2019-02-22T15:31:24.226Z,54.33
2019-02-22T15:33:57.581Z,54.42
2019-02-22T15:36:30.831Z,54.54
2019-02-22T15:39:05.146Z,55.79
2019-02-22T15:41:38.434Z,54.15
2019-02-22T15:44:12.764Z,49.70
2019-02-22T15:46:46.005Z,49.38
2019-02-22T15:49:19.327Z,52.45
2019-02-22T15:51:52.608Z,53.03
2019-02-22T15:54:25.910Z,54.04
2019-02-22T15:56:59.196Z,54.95
2019-02-22T15:59:32.525Z,55.59
2019-02-22T16:02:06.352Z,56.52
2019-02-22T16:04:45.161Z,57.38
2019-02-22T16:07:18.735Z,57.79
2019-02-22T16:09:52.130Z,57.84
2019-02-22T16:12:25.603Z,57.81
2019-02-22T16:14:59.941Z,58.55
2019-02-22T16:17:33.236Z,59.15
2019-02-22T16:20:08.182Z,59.16
2019-02-22T16:22:41.920Z,59.45
2019-02-22T16:25:19.683Z,60.02
2019-02-22T16:27:50.268Z,60.53
2019-02-22T16:30:26.744Z,61.01
2019-02-22T16:33:00.028Z,61.58
2019-02-22T16:35:33.912Z,62.01
2019-02-22T16:38:07.204Z,62.11
2019-02-22T16:40:40.580Z,62.60
2019-02-22T16:43:13.858Z,63.21
2019-02-22T16:45:47.152Z,63.35
2019-02-22T16:48:20.422Z,63.54
2019-02-22T16:50:53.711Z,64.08
2019-02-22T16:53:27.022Z,64.35
2019-02-22T16:56:00.399Z,65.04
2019-02-22T16:58:33.682Z,65.69
2019-02-22T17:01:07.056Z,65.59
2019-02-22T17:03:40.439Z,65.21
2019-02-22T17:06:13.791Z,65.78
2019-02-22T17:08:47.075Z,66.45
2019-02-22T17:11:21.430Z,66.30
2019-02-22T17:13:54.727Z,67.09
2019-02-22T17:16:28.021Z,67.73
2019-02-22T17:19:02.163Z,67.82
2019-02-22T17:21:35.458Z,68.16
2019-02-22T17:24:08.748Z,68.33
2019-02-22T17:26:42.066Z,69.36
2019-02-22T17:29:15.348Z,69.37
2019-02-22T17:31:48.654Z,70.20
2019-02-22T17:34:21.962Z,71.46
2019-02-22T17:36:55.260Z,70.55
2019-02-22T17:39:28.554Z,70.88
2019-02-22T17:42:01.883Z,71.38
2019-02-22T17:44:35.160Z,71.73
2019-02-22T17:47:10.005Z,72.24
2019-02-22T17:49:43.314Z,72.19
2019-02-22T17:52:19.023Z,71.33
2019-02-22T17:54:52.432Z,70.03
2019-02-22T17:57:25.712Z,69.76
2019-02-22T17:59:59.040Z,69.49
2019-02-22T18:02:33.560Z,69.66
2019-02-22T18:05:08.913Z,70.62
2019-02-22T18:07:42.192Z,70.72
2019-02-22T18:10:15.519Z,71.92
2019-02-22T18:12:52.256Z,72.26
2019-02-22T18:15:25.555Z,72.20
2019-02-22T18:17:58.839Z,72.63
2019-02-22T18:20:33.845Z,72.45
2019-02-22T18:23:07.142Z,72.77
2019-02-22T18:25:40.435Z,72.55
2019-02-22T18:28:13.823Z,72.31
2019-02-22T18:30:47.135Z,72.15
2019-02-22T18:33:20.483Z,72.12
2019-02-22T18:35:55.308Z,72.31
2019-02-22T18:38:28.610Z,73.06
2019-02-22T18:41:01.955Z,73.70
2019-02-22T18:43:35.356Z,73.06
2019-02-22T18:46:08.672Z,72.93
2019-02-22T18:48:41.962Z,73.62
2019-02-22T18:51:15.299Z,74.06
2019-02-22T18:53:48.603Z,74.91
2019-02-22T18:56:21.902Z,75.58
2019-02-22T18:58:55.223Z,75.69
2019-02-22T19:01:28.509Z,76.15
2019-02-22T19:04:01.800Z,76.42
2019-02-22T19:06:35.135Z,76.20
2019-02-22T19:09:08.418Z,76.21
2019-02-22T19:11:41.717Z,76.54
2019-02-22T19:14:15.004Z,76.75
2019-02-22T19:16:48.311Z,76.53
2019-02-22T19:19:21.586Z,74.77
2019-02-22T19:21:54.972Z,74.62
2019-02-22T19:24:28.258Z,74.50
2019-02-22T19:27:01.598Z,74.94
2019-02-22T19:29:34.900Z,75.07
2019-02-22T19:32:08.194Z,74.60
2019-02-22T19:34:41.473Z,74.15
2019-02-22T19:37:14.772Z,74.27
2019-02-22T19:39:48.063Z,74.62
2019-02-22T19:42:22.533Z,75.00
2019-02-22T19:44:55.897Z,74.21
2019-02-22T19:47:29.190Z,74.53
2019-02-22T19:50:02.841Z,74.43
2019-02-22T19:52:36.647Z,73.72
2019-02-22T19:55:15.156Z,73.94
2019-02-22T19:57:48.478Z,74.04
2019-02-22T20:00:21.826Z,73.67
2019-02-22T20:02:55.131Z,73.31
2019-02-22T20:05:28.426Z,73.68
2019-02-22T20:08:01.733Z,73.44
2019-02-22T20:10:35.111Z,73.73
2019-02-22T20:13:09.431Z,73.92
2019-02-22T20:15:42.733Z,74.15
2019-02-22T20:18:16.032Z,74.70
2019-02-22T20:20:49.297Z,75.31
2019-02-22T20:23:22.600Z,75.95
2019-02-22T20:25:55.868Z,76.78
2019-02-22T20:28:29.165Z,76.83
2019-02-22T20:31:02.447Z,76.97
2019-02-22T20:33:35.793Z,76.67
2019-02-22T20:36:09.077Z,76.34
2019-02-22T20:38:42.506Z,76.25
2019-02-22T20:41:15.758Z,76.88
2019-02-22T20:43:49.085Z,77.47
2019-02-22T20:46:22.340Z,78.21
2019-02-22T20:49:00.823Z,78.23
2019-02-22T20:51:31.845Z,78.68
2019-02-22T20:54:05.144Z,78.28
2019-02-22T20:56:38.325Z,78.82
2019-02-22T20:59:11.653Z,79.08
2019-02-22T21:01:44.951Z,78.91
2019-02-22T21:04:18.278Z,78.22
2019-02-22T21:06:51.542Z,77.39
2019-02-22T21:09:24.870Z,78.08
2019-02-22T21:11:58.186Z,78.68
2019-02-22T21:14:31.520Z,79.12
2019-02-22T21:17:05.648Z,79.74
2019-02-22T21:19:38.927Z,79.47
2019-02-22T21:22:12.220Z,79.08
2019-02-22T21:24:45.513Z,78.93
2019-02-22T21:27:18.893Z,77.94
2019-02-22T21:29:52.239Z,77.77
2019-02-22T21:32:25.533Z,77.69
2019-02-22T21:34:58.838Z,77.21
2019-02-22T21:37:32.134Z,77.38
2019-02-22T21:40:08.167Z,76.81
2019-02-22T21:42:41.596Z,76.33
2019-02-22T21:45:16.036Z,75.75
2019-02-22T21:47:54.671Z,74.79
2019-02-22T21:50:24.345Z,74.64
2019-02-22T21:52:57.697Z,74.65
2019-02-22T21:55:31.074Z,75.29
2019-02-22T21:58:04.406Z,74.80
2019-02-22T22:00:37.821Z,74.04
2019-02-22T22:03:11.113Z,73.98
2019-02-22T22:05:44.384Z,73.87
2019-02-22T22:08:17.685Z,74.31
2019-02-22T22:10:50.991Z,74.29
2019-02-22T22:13:24.306Z,74.10
2019-02-22T22:15:57.585Z,73.70
2019-02-22T22:18:38.412Z,73.45
2019-02-22T22:21:05.918Z,72.79
2019-02-22T22:23:39.234Z,72.16
2019-02-22T22:26:12.516Z,71.81
2019-02-22T22:28:45.828Z,71.37
2019-02-22T22:31:19.116Z,72.55
2019-02-22T22:33:52.434Z,73.63
2019-02-22T22:36:25.720Z,73.14
2019-02-22T22:38:59.026Z,73.94
2019-02-22T22:41:32.296Z,74.77
2019-02-22T22:44:06.708Z,74.24
2019-02-22T22:46:39.986Z,75.10
2019-02-22T22:49:13.278Z,74.02
2019-02-22T22:51:46.599Z,73.01
2019-02-22T22:54:19.928Z,73.43
2019-02-22T22:56:53.202Z,74.61
2019-02-22T22:59:26.499Z,74.35
2019-02-22T23:01:59.987Z,73.53
2019-02-22T23:04:33.273Z,72.99
2019-02-22T23:07:06.612Z,73.21
2019-02-22T23:09:39.957Z,73.71
2019-02-22T23:12:13.231Z,73.38
2019-02-22T23:14:46.530Z,72.71
2019-02-22T23:17:19.884Z,72.87
2019-02-22T23:19:53.327Z,73.63
2019-02-22T23:22:26.578Z,74.26
2019-02-22T23:24:59.872Z,75.46
2019-02-22T23:27:33.161Z,76.36
2019-02-22T23:30:08.000Z,74.50
2019-02-22T23:32:41.305Z,75.80
2019-02-22T23:35:14.641Z,76.06
2019-02-22T23:37:47.917Z,75.41
2019-02-22T23:40:21.231Z,75.71
2019-02-22T23:42:54.509Z,73.37
2019-02-22T23:45:27.829Z,72.81
2019-02-22T23:48:01.115Z,73.86
2019-02-22T23:50:34.423Z,74.09
2019-02-22T23:53:07.692Z,74.78
2019-02-22T23:55:41.023Z,75.09
2019-02-22T23:58:14.319Z,75.09
